sensor_id;sensor_type;location;lat;lon;timestamp;pressure;altitude;pressure_sealevel;temperature;humidity
72892;BME280;61032;50.782;6.818;2024-01-15T00:00:35;99342.28;;;2.03;78.67
72892;BME280;61032;50.782;6.818;2024-01-15T00:01:36;99338.34;;;2.09;79.26
72892;BME280;61032;50.782;6.818;2024-01-15T00:02:37;99344.88;;;1.94;79.66
72892;BME280;61032;50.782;6.818;2024-01-15T00:03:37;99339.53;;;1.89;80.33
72892;BME280;61032;50.782;6.818;2024-01-15T00:04:40;99339.16;;;1.82;80.57
72892;BME280;61032;50.782;6.818;2024-01-15T00:05:41;99348.09;;;1.83;81.23
72892;BME280;61032;50.782;6.818;2024-01-15T00:06:41;99342.75;;;1.91;80.77
72892;BME280;61032;50.782;6.818;2024-01-15T00:07:41;99331.31;;;1.94;80.58
72892;BME280;61032;50.782;6.818;2024-01-15T00:08:42;99337.56;;;1.95;80.59
72892;BME280;61032;50.782;6.818;2024-01-15T00:09:42;99337.97;;;2.02;81.78
72892;BME280;61032;50.782;6.818;2024-01-15T00:10:42;99333.84;;;2.04;81.57
72892;BME280;61032;50.782;6.818;2024-01-15T00:11:43;99334.34;;;2.06;81.70
72892;BME280;61032;50.782;6.818;2024-01-15T00:12:43;99334.13;;;2.03;81.87
72892;BME280;61032;50.782;6.818;2024-01-15T00:13:44;99330.31;;;1.90;82.50
72892;BME280;61032;50.782;6.818;2024-01-15T00:14:44;99334.44;;;1.88;83.53
72892;BME280;61032;50.782;6.818;2024-01-15T00:15:44;99316.69;;;1.82;83.52
72892;BME280;61032;50.782;6.818;2024-01-15T00:16:45;99320.91;;;1.74;84.30
72892;BME280;61032;50.782;6.818;2024-01-15T00:17:45;99320.81;;;1.79;84.07
72892;BME280;61032;50.782;6.818;2024-01-15T00:18:45;99326.63;;;1.72;84.26
72892;BME280;61032;50.782;6.818;2024-01-15T00:19:46;99320.81;;;1.79;84.55
72892;BME280;61032;50.782;6.818;2024-01-15T00:20:46;99318.31;;;1.83;83.94
72892;BME280;61032;50.782;6.818;2024-01-15T00:21:46;99309.88;;;1.84;83.47
72892;BME280;61032;50.782;6.818;2024-01-15T00:22:47;99312.28;;;1.86;83.14
72892;BME280;61032;50.782;6.818;2024-01-15T00:23:47;99309.38;;;1.82;83.16
72892;BME280;61032;50.782;6.818;2024-01-15T00:24:47;99303.44;;;1.94;83.55
72892;BME280;61032;50.782;6.818;2024-01-15T00:25:48;99305.34;;;1.93;82.49
72892;BME280;61032;50.782;6.818;2024-01-15T00:26:48;99303.13;;;1.95;83.32
72892;BME280;61032;50.782;6.818;2024-01-15T00:27:48;99314.97;;;1.99;82.48
72892;BME280;61032;50.782;6.818;2024-01-15T00:28:49;99297.09;;;1.98;82.24
72892;BME280;61032;50.782;6.818;2024-01-15T00:29:49;99307.66;;;1.86;82.66
72892;BME280;61032;50.782;6.818;2024-01-15T00:30:51;99312.88;;;1.83;83.71
72892;BME280;61032;50.782;6.818;2024-01-15T00:31:52;99306.88;;;1.86;83.97
72892;BME280;61032;50.782;6.818;2024-01-15T00:32:52;99306.03;;;1.71;83.69
72892;BME280;61032;50.782;6.818;2024-01-15T00:33:52;99303.03;;;1.73;84.67
72892;BME280;61032;50.782;6.818;2024-01-15T00:34:53;99303.84;;;1.73;84.75
72892;BME280;61032;50.782;6.818;2024-01-15T00:35:53;99303.53;;;1.75;85.34
72892;BME280;61032;50.782;6.818;2024-01-15T00:36:54;99290.50;;;1.63;85.24
72892;BME280;61032;50.782;6.818;2024-01-15T00:37:54;99303.44;;;1.66;85.65
72892;BME280;61032;50.782;6.818;2024-01-15T00:38:54;99308.84;;;1.66;86.26
72892;BME280;61032;50.782;6.818;2024-01-15T00:39:54;99301.84;;;1.65;86.73
72892;BME280;61032;50.782;6.818;2024-01-15T00:40:55;99299.81;;;1.71;86.29
72892;BME280;61032;50.782;6.818;2024-01-15T00:41:55;99292.28;;;1.68;86.44
72892;BME280;61032;50.782;6.818;2024-01-15T00:42:55;99302.53;;;1.71;86.03
72892;BME280;61032;50.782;6.818;2024-01-15T00:43:56;99301.84;;;1.79;86.11
72892;BME280;61032;50.782;6.818;2024-01-15T00:44:56;99297.63;;;1.87;85.04
72892;BME280;61032;50.782;6.818;2024-01-15T00:45:56;99285.00;;;1.82;85.01
72892;BME280;61032;50.782;6.818;2024-01-15T00:46:57;99290.59;;;1.72;85.28
72892;BME280;61032;50.782;6.818;2024-01-15T00:47:57;99289.41;;;1.64;84.70
72892;BME280;61032;50.782;6.818;2024-01-15T00:48:59;99283.78;;;1.75;84.93
72892;BME280;61032;50.782;6.818;2024-01-15T00:49:59;99283.19;;;1.78;84.52
72892;BME280;61032;50.782;6.818;2024-01-15T00:51:00;99287.81;;;1.63;85.13
72892;BME280;61032;50.782;6.818;2024-01-15T00:52:00;99286.38;;;1.80;84.98
72892;BME280;61032;50.782;6.818;2024-01-15T00:53:01;99289.97;;;1.89;84.37
72892;BME280;61032;50.782;6.818;2024-01-15T00:54:01;99285.25;;;1.94;84.04
72892;BME280;61032;50.782;6.818;2024-01-15T00:55:02;99278.63;;;2.00;83.06
72892;BME280;61032;50.782;6.818;2024-01-15T00:56:03;99280.53;;;2.00;83.16
72892;BME280;61032;50.782;6.818;2024-01-15T00:57:03;99291.09;;;2.01;82.89
72892;BME280;61032;50.782;6.818;2024-01-15T00:58:04;99283.16;;;1.91;82.88
72892;BME280;61032;50.782;6.818;2024-01-15T00:59:04;99289.06;;;1.93;82.27
72892;BME280;61032;50.782;6.818;2024-01-15T01:00:05;99283.56;;;1.98;82.26
72892;BME280;61032;50.782;6.818;2024-01-15T01:01:06;99280.44;;;1.91;82.05
72892;BME280;61032;50.782;6.818;2024-01-15T01:02:06;99286.25;;;1.98;81.90
72892;BME280;61032;50.782;6.818;2024-01-15T01:03:07;99293.69;;;2.06;81.45
72892;BME280;61032;50.782;6.818;2024-01-15T01:04:11;99288.75;;;2.08;81.33
72892;BME280;61032;50.782;6.818;2024-01-15T01:05:11;99293.25;;;2.13;81.43
72892;BME280;61032;50.782;6.818;2024-01-15T01:06:12;99286.53;;;2.11;81.09
72892;BME280;61032;50.782;6.818;2024-01-15T01:07:12;99286.94;;;2.18;81.29
72892;BME280;61032;50.782;6.818;2024-01-15T01:08:12;99282.31;;;2.18;80.56
72892;BME280;61032;50.782;6.818;2024-01-15T01:09:13;99284.13;;;2.23;80.82
72892;BME280;61032;50.782;6.818;2024-01-15T01:10:13;99287.63;;;2.10;80.73
72892;BME280;61032;50.782;6.818;2024-01-15T01:11:15;99282.41;;;2.13;81.30
72892;BME280;61032;50.782;6.818;2024-01-15T01:12:15;99286.16;;;2.03;80.66
72892;BME280;61032;50.782;6.818;2024-01-15T01:13:15;99280.59;;;2.08;81.26
72892;BME280;61032;50.782;6.818;2024-01-15T01:14:16;99285.75;;;1.96;80.96
72892;BME280;61032;50.782;6.818;2024-01-15T01:15:16;99276.13;;;2.04;81.32
72892;BME280;61032;50.782;6.818;2024-01-15T01:16:16;99283.91;;;2.19;81.11
72892;BME280;61032;50.782;6.818;2024-01-15T01:17:17;99283.31;;;2.08;81.19
72892;BME280;61032;50.782;6.818;2024-01-15T01:18:17;99292.28;;;1.95;81.60
72892;BME280;61032;50.782;6.818;2024-01-15T01:19:17;99288.56;;;1.91;82.55
72892;BME280;61032;50.782;6.818;2024-01-15T01:20:18;99286.28;;;1.85;83.24
72892;BME280;61032;50.782;6.818;2024-01-15T01:21:18;99289.50;;;1.87;82.59
72892;BME280;61032;50.782;6.818;2024-01-15T01:22:18;99280.78;;;1.76;82.80
72892;BME280;61032;50.782;6.818;2024-01-15T01:23:19;99282.88;;;1.79;83.78
72892;BME280;61032;50.782;6.818;2024-01-15T01:24:19;99280.78;;;1.62;84.88
72892;BME280;61032;50.782;6.818;2024-01-15T01:25:19;99283.56;;;1.71;84.65
72892;BME280;61032;50.782;6.818;2024-01-15T01:26:20;99282.38;;;1.77;84.41
72892;BME280;61032;50.782;6.818;2024-01-15T01:27:21;99284.78;;;1.79;84.98
72892;BME280;61032;50.782;6.818;2024-01-15T01:28:21;99284.16;;;1.68;85.01
72892;BME280;61032;50.782;6.818;2024-01-15T01:29:21;99276.78;;;1.60;85.95
72892;BME280;61032;50.782;6.818;2024-01-15T01:30:23;99291.13;;;1.60;85.48
72892;BME280;61032;50.782;6.818;2024-01-15T01:31:23;99281.66;;;1.71;85.65
72892;BME280;61032;50.782;6.818;2024-01-15T01:32:24;99282.38;;;1.77;85.20
72892;BME280;61032;50.782;6.818;2024-01-15T01:33:24;99281.75;;;1.66;84.66
72892;BME280;61032;50.782;6.818;2024-01-15T01:34:24;99278.06;;;1.76;84.28
72892;BME280;61032;50.782;6.818;2024-01-15T01:35:25;99278.47;;;1.83;84.04
72892;BME280;61032;50.782;6.818;2024-01-15T01:36:25;99276.25;;;1.85;83.32
72892;BME280;61032;50.782;6.818;2024-01-15T01:37:25;99277.75;;;1.91;82.58
72892;BME280;61032;50.782;6.818;2024-01-15T01:38:26;99278.75;;;1.95;81.66
72892;BME280;61032;50.782;6.818;2024-01-15T01:39:26;99288.28;;;1.93;82.13
72892;BME280;61032;50.782;6.818;2024-01-15T01:40:26;99283.16;;;1.91;81.64
72892;BME280;61032;50.782;6.818;2024-01-15T01:41:26;99283.75;;;1.88;81.61
72892;BME280;61032;50.782;6.818;2024-01-15T01:42:27;99284.75;;;1.92;81.85
72892;BME280;61032;50.782;6.818;2024-01-15T01:43:27;99283.66;;;1.93;81.89
72892;BME280;61032;50.782;6.818;2024-01-15T01:44:27;99282.56;;;1.94;81.83
72892;BME280;61032;50.782;6.818;2024-01-15T01:45:28;99279.56;;;1.82;82.31
72892;BME280;61032;50.782;6.818;2024-01-15T01:46:28;99274.94;;;1.83;82.37
72892;BME280;61032;50.782;6.818;2024-01-15T01:47:29;99281.53;;;1.90;83.23
72892;BME280;61032;50.782;6.818;2024-01-15T01:48:30;99284.59;;;1.75;83.87
72892;BME280;61032;50.782;6.818;2024-01-15T01:49:31;99286.09;;;1.81;84.36
72892;BME280;61032;50.782;6.818;2024-01-15T01:50:31;99276.97;;;1.77;84.40
72892;BME280;61032;50.782;6.818;2024-01-15T01:51:33;99287.00;;;1.77;85.24
72892;BME280;61032;50.782;6.818;2024-01-15T01:52:34;99286.97;;;1.49;86.12
72892;BME280;61032;50.782;6.818;2024-01-15T01:53:36;99280.16;;;1.52;85.93
72892;BME280;61032;50.782;6.818;2024-01-15T01:54:39;99287.19;;;1.53;86.16
72892;BME280;61032;50.782;6.818;2024-01-15T01:55:40;99281.78;;;1.53;86.73
72892;BME280;61032;50.782;6.818;2024-01-15T01:56:41;99294.72;;;1.56;87.36
72892;BME280;61032;50.782;6.818;2024-01-15T01:57:42;99287.19;;;1.53;87.74
72892;BME280;61032;50.782;6.818;2024-01-15T01:58:43;99286.59;;;1.56;87.59
72892;BME280;61032;50.782;6.818;2024-01-15T01:59:45;99287.69;;;1.41;87.44
72892;BME280;61032;50.782;6.818;2024-01-15T02:00:47;99289.00;;;1.44;87.74
72892;BME280;61032;50.782;6.818;2024-01-15T02:01:48;99289.00;;;1.44;87.55
72892;BME280;61032;50.782;6.818;2024-01-15T02:02:49;99297.13;;;1.44;87.73
72892;BME280;61032;50.782;6.818;2024-01-15T02:03:49;99285.59;;;1.38;87.61
72892;BME280;61032;50.782;6.818;2024-01-15T02:04:50;99283.59;;;1.44;87.89
72892;BME280;61032;50.782;6.818;2024-01-15T02:05:51;99291.28;;;1.36;87.57
72892;BME280;61032;50.782;6.818;2024-01-15T02:06:51;99290.78;;;1.34;88.54
72892;BME280;61032;50.782;6.818;2024-01-15T02:07:52;99289.06;;;1.25;88.18
72892;BME280;61032;50.782;6.818;2024-01-15T02:08:53;99292.41;;;1.35;88.44
72892;BME280;61032;50.782;6.818;2024-01-15T02:09:53;99295.00;;;1.41;89.10
72892;BME280;61032;50.782;6.818;2024-01-15T02:10:53;99290.69;;;1.40;88.54
72892;BME280;61032;50.782;6.818;2024-01-15T02:11:54;99291.72;;;1.44;87.69
72892;BME280;61032;50.782;6.818;2024-01-15T02:12:54;99289.19;;;1.33;88.15
72892;BME280;61032;50.782;6.818;2024-01-15T02:13:54;99285.88;;;1.36;87.84
72892;BME280;61032;50.782;6.818;2024-01-15T02:14:55;99292.69;;;1.48;87.76
72892;BME280;61032;50.782;6.818;2024-01-15T02:15:55;99287.91;;;1.45;86.83
72892;BME280;61032;50.782;6.818;2024-01-15T02:16:55;99294.31;;;1.49;86.76
72892;BME280;61032;50.782;6.818;2024-01-15T02:18:04;99293.41;;;1.40;86.13
72892;BME280;61032;50.782;6.818;2024-01-15T02:19:05;99294.50;;;1.38;86.93
72892;BME280;61032;50.782;6.818;2024-01-15T02:20:06;99297.38;;;1.28;86.12
72892;BME280;61032;50.782;6.818;2024-01-15T02:21:06;99283.97;;;1.37;86.89
72892;BME280;61032;50.782;6.818;2024-01-15T02:22:06;99283.59;;;1.44;86.44
72892;BME280;61032;50.782;6.818;2024-01-15T02:23:14;99293.41;;;1.40;86.28
72892;BME280;61032;50.782;6.818;2024-01-15T02:24:14;99298.22;;;1.43;86.35
72892;BME280;61032;50.782;6.818;2024-01-15T02:25:15;99290.28;;;1.46;86.71
72892;BME280;61032;50.782;6.818;2024-01-15T02:26:15;99288.88;;;1.49;86.01
72892;BME280;61032;50.782;6.818;2024-01-15T02:27:16;99292.31;;;1.41;85.63
72892;BME280;61032;50.782;6.818;2024-01-15T02:28:17;99292.53;;;1.44;85.72
72892;BME280;61032;50.782;6.818;2024-01-15T02:29:18;99290.63;;;1.45;86.59
72892;BME280;61032;50.782;6.818;2024-01-15T02:30:18;99294.72;;;1.42;86.42
72892;BME280;61032;50.782;6.818;2024-01-15T02:31:18;99296.13;;;1.40;86.77
72892;BME280;61032;50.782;6.818;2024-01-15T02:32:19;99298.75;;;1.45;86.45
72892;BME280;61032;50.782;6.818;2024-01-15T02:33:19;99296.72;;;1.36;86.77
72892;BME280;61032;50.782;6.818;2024-01-15T02:34:19;99300.13;;;1.42;86.97
72892;BME280;61032;50.782;6.818;2024-01-15T02:35:20;99298.81;;;1.40;86.50
72892;BME280;61032;50.782;6.818;2024-01-15T02:36:20;99290.00;;;1.48;86.77
72892;BME280;61032;50.782;6.818;2024-01-15T02:37:20;99288.19;;;1.43;86.90
72892;BME280;61032;50.782;6.818;2024-01-15T02:38:21;99294.91;;;1.46;86.51
72892;BME280;61032;50.782;6.818;2024-01-15T02:39:21;99290.78;;;1.48;86.69
72892;BME280;61032;50.782;6.818;2024-01-15T02:40:21;99299.41;;;1.50;86.79
72892;BME280;61032;50.782;6.818;2024-01-15T02:41:22;99304.25;;;1.53;86.98
72892;BME280;61032;50.782;6.818;2024-01-15T02:42:22;99290.09;;;1.43;86.83
72892;BME280;61032;50.782;6.818;2024-01-15T02:43:22;99295.31;;;1.53;86.53
72892;BME280;61032;50.782;6.818;2024-01-15T02:44:23;99294.81;;;1.51;86.02
72892;BME280;61032;50.782;6.818;2024-01-15T02:45:23;99294.59;;;1.47;86.37
72892;BME280;61032;50.782;6.818;2024-01-15T02:46:23;99292.41;;;1.49;85.84
72892;BME280;61032;50.782;6.818;2024-01-15T02:47:24;99283.19;;;1.50;86.70
72892;BME280;61032;50.782;6.818;2024-01-15T02:48:24;99279.78;;;1.58;85.51
72892;BME280;61032;50.782;6.818;2024-01-15T02:49:24;99274.16;;;1.55;85.84
72892;BME280;61032;50.782;6.818;2024-01-15T02:50:25;99284.19;;;1.54;85.82
72892;BME280;61032;50.782;6.818;2024-01-15T02:51:25;99288.88;;;1.49;85.47
72892;BME280;61032;50.782;6.818;2024-01-15T02:52:26;99275.34;;;1.49;86.48
72892;BME280;61032;50.782;6.818;2024-01-15T02:53:26;99264.72;;;1.38;86.17
72892;BME280;61032;50.782;6.818;2024-01-15T02:54:26;99289.00;;;1.44;86.22
72892;BME280;61032;50.782;6.818;2024-01-15T02:55:27;99280.59;;;1.45;86.46
72892;BME280;61032;50.782;6.818;2024-01-15T02:56:29;99274.16;;;1.55;86.12
72892;BME280;61032;50.782;6.818;2024-01-15T02:57:29;99274.53;;;1.48;86.36
72892;BME280;61032;50.782;6.818;2024-01-15T02:58:30;99275.56;;;1.52;86.24
72892;BME280;61032;50.782;6.818;2024-01-15T02:59:30;99275.75;;;1.56;86.83
72892;BME280;61032;50.782;6.818;2024-01-15T03:00:30;99278.16;;;1.57;86.37
72892;BME280;61032;50.782;6.818;2024-01-15T03:01:31;99270.94;;;1.53;86.05
72892;BME280;61032;50.782;6.818;2024-01-15T03:02:31;99277.28;;;1.62;85.92
72892;BME280;61032;50.782;6.818;2024-01-15T03:03:31;99282.19;;;1.60;86.20
72892;BME280;61032;50.782;6.818;2024-01-15T03:04:33;99278.38;;;1.61;86.24
72892;BME280;61032;50.782;6.818;2024-01-15T03:05:33;99291.13;;;1.60;85.68
72892;BME280;61032;50.782;6.818;2024-01-15T03:06:34;99273.56;;;1.58;85.60
72892;BME280;61032;50.782;6.818;2024-01-15T03:07:34;99282.56;;;1.67;86.42
72892;BME280;61032;50.782;6.818;2024-01-15T03:08:34;99282.41;;;1.63;85.75
72892;BME280;61032;50.782;6.818;2024-01-15T03:09:35;99282.28;;;1.55;85.65
72892;BME280;61032;50.782;6.818;2024-01-15T03:10:35;99274.56;;;1.62;86.26
72892;BME280;61032;50.782;6.818;2024-01-15T03:11:39;99275.88;;;1.64;85.89
72892;BME280;61032;50.782;6.818;2024-01-15T03:12:39;99279.69;;;1.63;86.05
72892;BME280;61032;50.782;6.818;2024-01-15T03:13:40;99286.69;;;1.51;85.93
72892;BME280;61032;50.782;6.818;2024-01-15T03:14:40;99276.94;;;1.50;86.14
72892;BME280;61032;50.782;6.818;2024-01-15T03:15:43;99288.78;;;1.54;86.42
72892;BME280;61032;50.782;6.818;2024-01-15T03:16:43;99277.56;;;1.60;86.63
72892;BME280;61032;50.782;6.818;2024-01-15T03:17:43;99284.47;;;1.53;86.87
72892;BME280;61032;50.782;6.818;2024-01-15T03:18:44;99279.38;;;1.65;86.51
72892;BME280;61032;50.782;6.818;2024-01-15T03:19:44;99283.19;;;1.64;86.11
72892;BME280;61032;50.782;6.818;2024-01-15T03:20:44;99281.28;;;1.64;86.22
72892;BME280;61032;50.782;6.818;2024-01-15T03:21:45;99278.59;;;1.64;85.63
72892;BME280;61032;50.782;6.818;2024-01-15T03:22:45;99270.16;;;1.66;85.88
72892;BME280;61032;50.782;6.818;2024-01-15T03:23:45;99268.94;;;1.72;85.52
72892;BME280;61032;50.782;6.818;2024-01-15T03:24:46;99273.34;;;1.68;85.72
72892;BME280;61032;50.782;6.818;2024-01-15T03:25:46;99272.38;;;1.64;85.66
72892;BME280;61032;50.782;6.818;2024-01-15T03:26:46;99273.75;;;1.75;85.15
72892;BME280;61032;50.782;6.818;2024-01-15T03:27:46;99277.66;;;1.83;85.39
72892;BME280;61032;50.782;6.818;2024-01-15T03:28:47;99271.31;;;1.87;85.25
72892;BME280;61032;50.782;6.818;2024-01-15T03:29:47;99266.94;;;1.78;84.78
72892;BME280;61032;50.782;6.818;2024-01-15T03:30:47;99273.84;;;1.84;84.68
72892;BME280;61032;50.782;6.818;2024-01-15T03:31:48;99271.13;;;1.70;84.77
72892;BME280;61032;50.782;6.818;2024-01-15T03:32:48;99271.53;;;1.77;84.97
72892;BME280;61032;50.782;6.818;2024-01-15T03:33:50;99268.72;;;1.82;84.10
72892;BME280;61032;50.782;6.818;2024-01-15T03:34:50;99272.66;;;1.76;84.49
72892;BME280;61032;50.782;6.818;2024-01-15T03:35:52;99269.75;;;1.86;83.70
72892;BME280;61032;50.782;6.818;2024-01-15T03:36:52;99274.53;;;1.89;84.34
72892;BME280;61032;50.782;6.818;2024-01-15T03:37:52;99270.94;;;1.80;83.84
72892;BME280;61032;50.782;6.818;2024-01-15T03:38:53;99275.34;;;1.76;83.42
72892;BME280;61032;50.782;6.818;2024-01-15T03:39:53;99276.03;;;1.68;84.15
72892;BME280;61032;50.782;6.818;2024-01-15T03:40:53;99281.75;;;1.66;84.72
72892;BME280;61032;50.782;6.818;2024-01-15T03:41:55;99276.16;;;1.77;84.22
72892;BME280;61032;50.782;6.818;2024-01-15T03:42:55;99274.53;;;1.76;84.21
72892;BME280;61032;50.782;6.818;2024-01-15T03:43:55;99271.13;;;1.84;84.29
72892;BME280;61032;50.782;6.818;2024-01-15T03:44:56;99269.94;;;1.62;84.04
72892;BME280;61032;50.782;6.818;2024-01-15T03:45:56;99270.75;;;1.63;84.96
72892;BME280;61032;50.782;6.818;2024-01-15T03:46:56;99278.06;;;1.62;84.27
72892;BME280;61032;50.782;6.818;2024-01-15T03:47:58;99273.84;;;1.70;85.11
72892;BME280;61032;50.782;6.818;2024-01-15T03:48:58;99273.25;;;1.73;84.94
72892;BME280;61032;50.782;6.818;2024-01-15T03:49:59;99268.94;;;1.86;84.82
72892;BME280;61032;50.782;6.818;2024-01-15T03:50:59;99267.03;;;1.86;83.95
72892;BME280;61032;50.782;6.818;2024-01-15T03:51:59;99269.94;;;1.62;84.58
72892;BME280;61032;50.782;6.818;2024-01-15T03:53:00;99265.22;;;1.68;85.16
72892;BME280;61032;50.782;6.818;2024-01-15T03:54:00;99266.22;;;1.72;84.49
72892;BME280;61032;50.782;6.818;2024-01-15T03:55:00;99267.31;;;1.71;84.97
72892;BME280;61032;50.782;6.818;2024-01-15T03:56:01;99258.91;;;1.59;84.98
72892;BME280;61032;50.782;6.818;2024-01-15T03:57:01;99264.09;;;1.69;84.88
72892;BME280;61032;50.782;6.818;2024-01-15T03:58:01;99259.09;;;1.76;85.12
72892;BME280;61032;50.782;6.818;2024-01-15T03:59:02;99268.31;;;1.75;84.72
72892;BME280;61032;50.782;6.818;2024-01-15T04:00:02;99262.91;;;1.75;84.24
72892;BME280;61032;50.782;6.818;2024-01-15T04:01:03;99262.50;;;1.68;84.51
72892;BME280;61032;50.782;6.818;2024-01-15T04:02:04;99261.91;;;1.71;84.28
72892;BME280;61032;50.782;6.818;2024-01-15T04:03:04;99272.94;;;1.75;84.13
72892;BME280;61032;50.782;6.818;2024-01-15T04:04:05;99267.31;;;1.71;84.50
72892;BME280;61032;50.782;6.818;2024-01-15T04:05:05;99267.53;;;1.75;84.43
72892;BME280;61032;50.782;6.818;2024-01-15T04:06:05;99269.84;;;1.81;84.06
72892;BME280;61032;50.782;6.818;2024-01-15T04:07:06;99256.19;;;1.72;83.83
72892;BME280;61032;50.782;6.818;2024-01-15T04:08:06;99260.50;;;1.73;84.58
72892;BME280;61032;50.782;6.818;2024-01-15T04:09:06;99250.06;;;1.67;84.14
72892;BME280;61032;50.782;6.818;2024-01-15T04:10:07;99252.31;;;1.65;84.80
72892;BME280;61032;50.782;6.818;2024-01-15T04:11:07;99249.75;;;1.68;85.20
72892;BME280;61032;50.782;6.818;2024-01-15T04:12:08;99254.28;;;1.73;84.90
72892;BME280;61032;50.782;6.818;2024-01-15T04:13:08;99247.47;;;1.62;85.31
72892;BME280;61032;50.782;6.818;2024-01-15T04:14:08;99251.06;;;1.71;85.25
72892;BME280;61032;50.782;6.818;2024-01-15T04:15:09;99245.28;;;1.64;85.61
72892;BME280;61032;50.782;6.818;2024-01-15T04:16:09;99244.56;;;1.72;86.28
72892;BME280;61032;50.782;6.818;2024-01-15T04:17:09;99252.56;;;1.77;85.58
72892;BME280;61032;50.782;6.818;2024-01-15T04:18:09;99250.47;;;1.74;85.12
72892;BME280;61032;50.782;6.818;2024-01-15T04:19:10;99241.94;;;1.67;85.66
72892;BME280;61032;50.782;6.818;2024-01-15T04:20:10;99238.44;;;1.80;85.27
72892;BME280;61032;50.782;6.818;2024-01-15T04:21:11;99248.75;;;1.78;85.20
72892;BME280;61032;50.782;6.818;2024-01-15T04:22:11;99243.63;;;1.90;85.86
72892;BME280;61032;50.782;6.818;2024-01-15T04:23:12;99248.66;;;1.83;84.91
72892;BME280;61032;50.782;6.818;2024-01-15T04:24:12;99246.06;;;1.78;84.34
72892;BME280;61032;50.782;6.818;2024-01-15T04:25:12;99241.22;;;1.89;84.57
72892;BME280;61032;50.782;6.818;2024-01-15T04:26:13;99245.97;;;1.83;84.59
72892;BME280;61032;50.782;6.818;2024-01-15T04:27:13;99231.81;;;1.72;84.50
72892;BME280;61032;50.782;6.818;2024-01-15T04:28:14;99244.66;;;1.67;84.69
72892;BME280;61032;50.782;6.818;2024-01-15T04:29:14;99234.31;;;1.69;85.04
72892;BME280;61032;50.782;6.818;2024-01-15T04:30:14;99232.00;;;1.76;85.56
72892;BME280;61032;50.782;6.818;2024-01-15T04:31:24;99234.63;;;1.67;84.26
72892;BME280;61032;50.782;6.818;2024-01-15T04:32:26;99241.53;;;1.73;84.99
72892;BME280;61032;50.782;6.818;2024-01-15T04:33:27;99240.53;;;1.83;85.25
72892;BME280;61032;50.782;6.818;2024-01-15T04:34:27;99247.25;;;1.86;83.97
72892;BME280;61032;50.782;6.818;2024-01-15T04:35:27;99242.44;;;1.83;83.83
72892;BME280;61032;50.782;6.818;2024-01-15T04:36:28;99233.50;;;1.82;83.84
72892;BME280;61032;50.782;6.818;2024-01-15T04:37:28;99234.53;;;1.86;83.64
72892;BME280;61032;50.782;6.818;2024-01-15T04:38:28;99236.59;;;1.89;83.82
72892;BME280;61032;50.782;6.818;2024-01-15T04:39:29;99231.28;;;1.98;83.79
72892;BME280;61032;50.782;6.818;2024-01-15T04:40:29;99230.97;;;1.99;83.36
72892;BME280;61032;50.782;6.818;2024-01-15T04:41:29;99228.44;;;2.03;83.29
72892;BME280;61032;50.782;6.818;2024-01-15T04:42:30;99231.78;;;2.00;83.12
72892;BME280;61032;50.782;6.818;2024-01-15T04:43:30;99232.56;;;2.00;83.40
72892;BME280;61032;50.782;6.818;2024-01-15T04:44:30;99227.53;;;2.08;83.42
72892;BME280;61032;50.782;6.818;2024-01-15T04:45:31;99224.25;;;1.97;82.79
72892;BME280;61032;50.782;6.818;2024-01-15T04:46:31;99228.16;;;2.04;83.32
72892;BME280;61032;50.782;6.818;2024-01-15T04:47:31;99227.53;;;2.08;82.46
72892;BME280;61032;50.782;6.818;2024-01-15T04:48:32;99228.66;;;2.06;82.78
72892;BME280;61032;50.782;6.818;2024-01-15T04:49:32;99218.72;;;2.02;83.16
72892;BME280;61032;50.782;6.818;2024-01-15T04:50:33;99221.72;;;2.00;83.09
72892;BME280;61032;50.782;6.818;2024-01-15T04:51:34;99216.19;;;2.05;83.03
72892;BME280;61032;50.782;6.818;2024-01-15T04:52:34;99222.72;;;2.04;82.63
72892;BME280;61032;50.782;6.818;2024-01-15T04:53:35;99215.69;;;2.03;82.85
72892;BME280;61032;50.782;6.818;2024-01-15T04:54:36;99225.13;;;2.06;82.78
72892;BME280;61032;50.782;6.818;2024-01-15T04:55:36;99207.91;;;1.88;83.44
72892;BME280;61032;50.782;6.818;2024-01-15T04:56:37;99218.72;;;1.88;83.76
72892;BME280;61032;50.782;6.818;2024-01-15T04:57:37;99216.34;;;1.87;84.27
72892;BME280;61032;50.782;6.818;2024-01-15T04:58:38;99219.38;;;1.85;84.71
72892;BME280;61032;50.782;6.818;2024-01-15T04:59:38;99223.13;;;1.98;84.88
72892;BME280;61032;50.782;6.818;2024-01-15T05:00:39;99214.63;;;1.91;84.84
72892;BME280;61032;50.782;6.818;2024-01-15T05:01:40;99222.53;;;1.87;84.92
72892;BME280;61032;50.782;6.818;2024-01-15T05:02:40;99212.31;;;1.98;84.76
72892;BME280;61032;50.782;6.818;2024-01-15T05:03:40;99219.72;;;1.92;84.45
72892;BME280;61032;50.782;6.818;2024-01-15T05:04:41;99218.25;;;1.86;85.40
72892;BME280;61032;50.782;6.818;2024-01-15T05:05:41;99218.94;;;1.92;86.02
72892;BME280;61032;50.782;6.818;2024-01-15T05:06:41;99219.63;;;1.97;85.72
72892;BME280;61032;50.782;6.818;2024-01-15T05:07:42;99215.91;;;1.93;85.40
72892;BME280;61032;50.782;6.818;2024-01-15T05:08:42;99207.50;;;1.95;85.09
72892;BME280;61032;50.782;6.818;2024-01-15T05:09:42;99212.09;;;1.94;85.61
72892;BME280;61032;50.782;6.818;2024-01-15T05:10:43;99208.28;;;1.95;85.78
72892;BME280;61032;50.782;6.818;2024-01-15T05:11:43;99212.78;;;2.00;85.61
72892;BME280;61032;50.782;6.818;2024-01-15T05:12:44;99215.19;;;2.01;86.02
72892;BME280;61032;50.782;6.818;2024-01-15T05:13:44;99212.09;;;1.94;85.38
72892;BME280;61032;50.782;6.818;2024-01-15T05:14:44;99212.91;;;1.95;85.61
72892;BME280;61032;50.782;6.818;2024-01-15T05:15:45;99206.72;;;1.81;86.00
72892;BME280;61032;50.782;6.818;2024-01-15T05:16:48;99215.06;;;1.84;86.52
72892;BME280;61032;50.782;6.818;2024-01-15T05:17:49;99202.47;;;1.88;86.98
72892;BME280;61032;50.782;6.818;2024-01-15T05:18:49;99214.13;;;1.89;86.87
72892;BME280;61032;50.782;6.818;2024-01-15T05:19:50;99212.50;;;1.88;87.08
72892;BME280;61032;50.782;6.818;2024-01-15T05:20:50;99212.41;;;1.93;86.64
72892;BME280;61032;50.782;6.818;2024-01-15T05:21:52;99209.00;;;1.87;86.63
72892;BME280;61032;50.782;6.818;2024-01-15T05:22:52;99210.75;;;1.83;87.03
72892;BME280;61032;50.782;6.818;2024-01-15T05:23:53;99211.44;;;1.75;87.29
72892;BME280;61032;50.782;6.818;2024-01-15T05:24:53;99212.53;;;1.74;87.44